createdAt,value
2017-09-15T00:01:52.271Z,9.50
2017-09-15T00:04:20.632Z,9.60
2017-09-15T00:06:48.259Z,9.60
2017-09-15T00:09:15.877Z,9.50
2017-09-15T00:11:44.251Z,9.40
2017-09-15T00:14:11.897Z,9.40
2017-09-15T00:16:39.495Z,9.40
2017-09-15T00:19:08.238Z,9.50
2017-09-15T00:21:35.848Z,9.50
2017-09-15T00:24:03.472Z,9.60
2017-09-15T00:26:31.090Z,9.50
2017-09-15T00:28:58.720Z,9.50
2017-09-15T00:31:26.380Z,9.50
2017-09-15T00:33:54.068Z,9.40
2017-09-15T00:36:21.679Z,9.30
2017-09-15T00:38:49.299Z,9.40
2017-09-15T00:41:16.996Z,9.30
2017-09-15T00:43:44.602Z,9.30
2017-09-15T00:46:13.002Z,9.40
2017-09-15T00:48:40.669Z,9.40
2017-09-15T00:51:08.358Z,9.40
2017-09-15T00:53:36.078Z,9.40
2017-09-15T00:56:03.820Z,9.40
2017-09-15T00:58:32.301Z,9.30
2017-09-15T01:01:00.795Z,9.30
2017-09-15T01:03:28.407Z,9.30
2017-09-15T01:05:56.085Z,9.30
2017-09-15T01:08:23.671Z,9.30
2017-09-15T01:10:52.088Z,9.20
2017-09-15T01:13:19.694Z,9.20
2017-09-15T01:15:47.336Z,9.20
2017-09-15T01:18:15.126Z,9.20
2017-09-15T01:20:42.723Z,9.40
2017-09-15T01:23:10.333Z,9.40
2017-09-15T01:25:37.964Z,9.40
2017-09-15T01:28:05.567Z,9.40
2017-09-15T01:30:33.153Z,9.30
2017-09-15T01:33:01.549Z,9.40
2017-09-15T01:35:29.175Z,9.30
2017-09-15T01:37:56.762Z,9.30
2017-09-15T01:40:24.414Z,9.30
2017-09-15T01:42:52.022Z,9.30
2017-09-15T01:45:19.628Z,9.20
2017-09-15T01:47:47.259Z,9.40
2017-09-15T01:50:14.868Z,9.40
2017-09-15T01:52:42.461Z,9.50
2017-09-15T01:55:10.204Z,9.50
2017-09-15T01:57:37.812Z,9.50
2017-09-15T02:00:06.656Z,9.60
2017-09-15T02:02:34.299Z,9.60
2017-09-15T02:05:02.740Z,9.50
2017-09-15T02:07:30.382Z,9.50
2017-09-15T02:09:58.036Z,9.60
2017-09-15T02:12:25.730Z,9.50
2017-09-15T02:14:53.856Z,9.50
2017-09-15T02:17:21.833Z,9.50
2017-09-15T02:19:49.801Z,9.30
2017-09-15T02:22:17.449Z,9.30
2017-09-15T02:24:45.141Z,9.30
2017-09-15T02:27:12.835Z,9.30
2017-09-15T02:29:40.443Z,9.40
2017-09-15T02:32:08.910Z,9.40
2017-09-15T02:34:37.308Z,9.40
2017-09-15T02:37:05.050Z,9.40
2017-09-15T02:39:32.628Z,9.40
2017-09-15T02:42:00.306Z,9.40
2017-09-15T02:44:27.919Z,9.40
2017-09-15T02:46:55.510Z,9.40
2017-09-15T02:49:23.853Z,9.40
2017-09-15T02:51:51.451Z,9.40
2017-09-15T02:54:19.815Z,9.30
2017-09-15T02:56:47.476Z,9.30
2017-09-15T02:59:15.062Z,9.20
2017-09-15T03:01:43.776Z,9.20
2017-09-15T03:04:11.425Z,9.20
2017-09-15T03:06:39.025Z,9.20
2017-09-15T03:09:06.628Z,9.20
2017-09-15T03:11:35.025Z,9.30
2017-09-15T03:14:02.610Z,9.30
2017-09-15T03:16:30.230Z,9.30
2017-09-15T03:18:57.876Z,9.30
2017-09-15T03:21:25.500Z,9.40
2017-09-15T03:23:53.113Z,9.50
2017-09-15T03:26:21.560Z,9.50
2017-09-15T03:28:49.174Z,9.50
2017-09-15T03:31:16.761Z,9.50
2017-09-15T03:33:44.384Z,9.40
2017-09-15T03:36:12.760Z,9.40
2017-09-15T03:38:40.373Z,9.40
2017-09-15T03:41:08.015Z,9.40
2017-09-15T03:43:35.620Z,9.40
2017-09-15T03:46:03.208Z,9.50
2017-09-15T03:48:30.836Z,9.50
2017-09-15T03:50:58.457Z,9.50
2017-09-15T03:53:26.077Z,9.40
2017-09-15T03:55:54.488Z,9.40
2017-09-15T03:58:22.116Z,9.40
2017-09-15T04:00:49.723Z,9.40
2017-09-15T04:03:17.382Z,9.40
2017-09-15T04:05:44.979Z,9.40
2017-09-15T04:08:12.603Z,9.40
2017-09-15T04:10:40.255Z,9.30
2017-09-15T04:13:07.950Z,9.30
2017-09-15T04:15:35.581Z,9.40
2017-09-15T04:18:03.286Z,9.40
2017-09-15T04:20:30.948Z,9.40
2017-09-15T04:22:58.681Z,9.40
2017-09-15T04:25:27.088Z,9.40
2017-09-15T04:27:54.699Z,9.40
2017-09-15T04:30:22.297Z,9.40
2017-09-15T04:32:49.880Z,9.40
2017-09-15T04:35:17.512Z,9.50
2017-09-15T04:37:45.144Z,9.50
2017-09-15T04:40:12.770Z,9.40
2017-09-15T04:42:40.383Z,9.30
2017-09-15T04:45:08.017Z,9.40
2017-09-15T04:47:35.643Z,9.50
2017-09-15T04:50:03.279Z,9.50
2017-09-15T04:52:30.891Z,9.50
2017-09-15T04:54:58.789Z,9.50
2017-09-15T04:57:26.397Z,9.40
2017-09-15T04:59:53.983Z,9.40
2017-09-15T05:02:21.804Z,9.30
2017-09-15T05:04:49.410Z,9.30
2017-09-15T05:07:17.020Z,9.30
2017-09-15T05:09:44.608Z,9.20
2017-09-15T05:12:12.210Z,9.30
2017-09-15T05:14:39.824Z,9.10
2017-09-15T05:17:07.806Z,9.20
2017-09-15T05:19:35.472Z,9.40
2017-09-15T05:22:03.062Z,9.40
2017-09-15T05:24:30.695Z,9.30
2017-09-15T05:26:58.346Z,9.30
2017-09-15T05:29:25.923Z,9.20
2017-09-15T05:31:53.520Z,9.40
2017-09-15T05:34:21.144Z,9.40
2017-09-15T05:36:48.724Z,9.60
2017-09-15T05:39:17.166Z,9.70
2017-09-15T05:41:44.790Z,9.60
2017-09-15T05:44:12.371Z,9.80
2017-09-15T05:46:39.983Z,9.80
2017-09-15T05:49:07.764Z,9.80
2017-09-15T05:51:35.377Z,9.70
2017-09-15T05:54:03.137Z,9.80
2017-09-15T05:56:30.750Z,10.00
2017-09-15T05:58:58.457Z,9.90
2017-09-15T06:01:26.140Z,10.00
2017-09-15T06:03:54.538Z,9.80
2017-09-15T06:06:22.173Z,9.90
2017-09-15T06:08:49.808Z,9.90
2017-09-15T06:11:17.472Z,9.90
2017-09-15T06:13:45.864Z,10.10
2017-09-15T06:16:13.574Z,10.10
2017-09-15T06:18:41.966Z,10.10
2017-09-15T06:21:09.649Z,10.20
2017-09-15T06:23:38.479Z,10.20
2017-09-15T06:26:06.180Z,10.40
2017-09-15T06:28:33.795Z,10.50
2017-09-15T06:31:02.063Z,10.50
2017-09-15T06:33:29.788Z,10.70
2017-09-15T06:35:57.419Z,10.70
2017-09-15T06:38:25.055Z,10.70
2017-09-15T06:40:52.718Z,10.70
2017-09-15T06:43:20.329Z,10.80
2017-09-15T06:45:48.724Z,10.90
2017-09-15T06:48:16.385Z,10.90
2017-09-15T06:50:44.073Z,10.80
2017-09-15T06:53:11.716Z,10.90
2017-09-15T06:55:39.355Z,10.90
2017-09-15T06:58:07.014Z,10.90
2017-09-15T07:00:34.628Z,11.00
2017-09-15T07:03:02.285Z,11.00
2017-09-15T07:05:29.900Z,11.20
2017-09-15T07:07:57.557Z,11.20
2017-09-15T07:10:26.054Z,11.10
2017-09-15T07:12:54.508Z,11.30
2017-09-15T07:15:22.135Z,11.30
2017-09-15T07:17:49.796Z,11.30
2017-09-15T07:20:17.419Z,11.40
2017-09-15T07:22:45.064Z,11.30
2017-09-15T07:25:12.713Z,11.40
2017-09-15T07:27:40.340Z,11.40
2017-09-15T07:30:07.957Z,11.50
2017-09-15T07:32:35.593Z,11.60
2017-09-15T07:35:03.982Z,11.70
2017-09-15T07:37:32.047Z,11.70
2017-09-15T07:40:00.043Z,11.80
2017-09-15T07:42:27.877Z,12.00
2017-09-15T07:44:55.780Z,11.90
2017-09-15T07:47:23.986Z,11.80
2017-09-15T07:49:51.663Z,11.80
2017-09-15T07:52:19.831Z,11.90
2017-09-15T07:54:47.498Z,12.20
2017-09-15T07:57:16.825Z,12.20
2017-09-15T07:59:44.541Z,12.10
2017-09-15T08:02:12.219Z,12.10
2017-09-15T08:04:42.487Z,12.30
2017-09-15T08:07:10.174Z,12.40
2017-09-15T08:09:37.812Z,12.20
2017-09-15T08:12:05.434Z,12.10
2017-09-15T08:14:33.076Z,12.20
2017-09-15T08:17:01.453Z,12.80
2017-09-15T08:19:29.863Z,12.70
2017-09-15T08:21:57.500Z,12.70
2017-09-15T08:24:25.877Z,12.50
2017-09-15T08:26:53.565Z,12.50
2017-09-15T08:29:21.701Z,12.60
2017-09-15T08:31:49.501Z,12.70
2017-09-15T08:34:17.199Z,12.90
2017-09-15T08:36:44.832Z,12.80
2017-09-15T08:39:12.493Z,12.60
2017-09-15T08:41:40.227Z,12.50
2017-09-15T08:44:07.993Z,12.70
2017-09-15T08:46:35.688Z,12.90
2017-09-15T08:49:03.424Z,13.00
2017-09-15T08:51:31.167Z,12.90
2017-09-15T08:53:58.855Z,13.00
2017-09-15T08:56:26.553Z,13.20
2017-09-15T08:58:54.212Z,13.50
2017-09-15T09:01:21.880Z,14.00
2017-09-15T09:03:49.540Z,14.00
2017-09-15T09:06:17.222Z,13.80
2017-09-15T09:08:44.850Z,13.90
2017-09-15T09:11:12.531Z,13.80
2017-09-15T09:13:40.151Z,13.80
2017-09-15T09:16:07.764Z,13.80
2017-09-15T09:18:35.481Z,13.70
2017-09-15T09:21:03.104Z,13.80
2017-09-15T09:23:30.787Z,13.90
2017-09-15T09:25:58.488Z,13.80
2017-09-15T09:28:26.135Z,13.90
2017-09-15T09:30:54.762Z,13.80
2017-09-15T09:33:22.426Z,13.80
2017-09-15T09:35:50.124Z,13.70
2017-09-15T09:38:17.787Z,13.30
2017-09-15T09:40:45.425Z,13.30
2017-09-15T09:43:13.078Z,13.30
2017-09-15T09:45:40.732Z,13.40
2017-09-15T09:48:08.723Z,13.60
2017-09-15T09:50:36.345Z,13.90
2017-09-15T09:53:03.987Z,14.10
2017-09-15T09:55:31.645Z,14.00
2017-09-15T09:57:59.277Z,14.20
2017-09-15T10:00:26.925Z,14.60
2017-09-15T10:02:55.025Z,14.40
2017-09-15T10:05:28.873Z,14.50
2017-09-15T10:08:00.373Z,14.00
2017-09-15T10:10:34.687Z,14.00
2017-09-15T10:13:02.672Z,14.00
2017-09-15T10:15:30.296Z,14.10
2017-09-15T10:17:57.909Z,14.30
2017-09-15T10:20:26.302Z,14.30
2017-09-15T10:22:53.971Z,14.30
2017-09-15T10:25:21.582Z,14.30
2017-09-15T10:27:49.176Z,14.30
2017-09-15T10:30:17.571Z,15.10
2017-09-15T10:32:45.195Z,15.10
2017-09-15T10:35:13.727Z,15.00
2017-09-15T10:37:41.401Z,15.00
2017-09-15T10:40:10.647Z,14.90
2017-09-15T10:42:38.320Z,14.80
2017-09-15T10:45:06.765Z,14.70
2017-09-15T10:47:34.469Z,14.70
2017-09-15T10:50:02.107Z,14.80
2017-09-15T10:52:29.787Z,14.90
2017-09-15T10:54:57.457Z,15.30
2017-09-15T10:57:26.102Z,15.30
2017-09-15T10:59:59.488Z,15.30
2017-09-15T11:02:27.091Z,15.30
2017-09-15T11:04:54.697Z,15.20
2017-09-15T11:07:23.106Z,15.30
2017-09-15T11:09:50.754Z,15.20
2017-09-15T11:12:18.352Z,15.50
2017-09-15T11:14:45.976Z,15.40
2017-09-15T11:17:13.581Z,15.60
2017-09-15T11:19:41.208Z,15.10
2017-09-15T11:22:09.347Z,14.90
2017-09-15T11:24:37.654Z,15.00
2017-09-15T11:27:06.160Z,15.20
2017-09-15T11:29:33.932Z,15.20
2017-09-15T11:32:01.552Z,15.60
2017-09-15T11:34:29.156Z,15.60
2017-09-15T11:36:56.801Z,15.80
2017-09-15T11:39:24.567Z,16.30
2017-09-15T11:41:52.173Z,16.20
2017-09-15T11:44:20.576Z,15.90
2017-09-15T11:46:48.173Z,15.90
2017-09-15T11:49:15.778Z,15.90
2017-09-15T11:51:44.160Z,16.20
2017-09-15T11:54:11.774Z,16.10
2017-09-15T11:56:39.457Z,15.70
2017-09-15T11:59:07.044Z,15.40
2017-09-15T12:01:35.443Z,15.80
2017-09-15T12:04:03.110Z,15.80
2017-09-15T12:06:30.761Z,16.20
2017-09-15T12:08:58.360Z,16.40
2017-09-15T12:11:26.052Z,16.00
2017-09-15T12:13:53.677Z,15.80
2017-09-15T12:16:22.158Z,16.10
2017-09-15T12:18:49.831Z,16.30
2017-09-15T12:21:17.443Z,16.40
2017-09-15T12:23:45.822Z,16.20
2017-09-15T12:26:13.483Z,16.20
2017-09-15T12:28:41.171Z,16.30
2017-09-15T12:31:08.847Z,16.20
2017-09-15T12:33:36.494Z,16.50
2017-09-15T12:36:04.505Z,16.80
2017-09-15T12:38:32.116Z,16.70
2017-09-15T12:40:59.744Z,16.50
2017-09-15T12:43:27.392Z,16.60
2017-09-15T12:45:55.151Z,16.60
2017-09-15T12:48:22.810Z,16.50
2017-09-15T12:50:50.461Z,16.70
2017-09-15T12:53:18.090Z,16.90
2017-09-15T12:55:45.680Z,17.00
2017-09-15T12:58:13.318Z,17.00
2017-09-15T13:00:45.617Z,17.20
2017-09-15T13:03:13.262Z,17.50
2017-09-15T13:05:40.876Z,17.40
2017-09-15T13:08:08.575Z,17.50
2017-09-15T13:10:36.216Z,18.00
2017-09-15T13:13:03.877Z,18.20
2017-09-15T13:15:32.266Z,18.80
2017-09-15T13:17:59.878Z,18.80
2017-09-15T13:20:27.615Z,18.70
2017-09-15T13:22:55.324Z,18.70
2017-09-15T13:25:23.068Z,18.40
2017-09-15T13:27:50.731Z,17.90
2017-09-15T13:30:18.503Z,17.90
2017-09-15T13:32:46.140Z,18.40
2017-09-15T13:35:13.802Z,18.80
2017-09-15T13:37:41.470Z,19.00
2017-09-15T13:40:09.126Z,18.70
2017-09-15T13:42:36.761Z,18.60
2017-09-15T13:45:05.297Z,18.30
2017-09-15T13:47:32.906Z,18.20
2017-09-15T13:50:00.545Z,18.30
2017-09-15T13:52:28.158Z,18.50
2017-09-15T13:54:55.752Z,18.20
2017-09-15T13:57:23.400Z,18.00
2017-09-15T13:59:51.024Z,17.60
2017-09-15T14:02:18.637Z,17.60
2017-09-15T14:04:46.287Z,17.90
2017-09-15T14:07:14.185Z,17.60
2017-09-15T14:09:43.730Z,17.40
2017-09-15T14:12:11.479Z,17.90
2017-09-15T14:14:40.720Z,18.40
2017-09-15T14:17:08.310Z,18.40
2017-09-15T14:19:35.943Z,18.30
2017-09-15T14:22:07.477Z,18.40
2017-09-15T14:24:37.463Z,18.60
2017-09-15T14:27:05.944Z,18.20
2017-09-15T14:29:35.020Z,18.20
2017-09-15T14:32:02.638Z,17.80
2017-09-15T14:34:31.187Z,18.20
2017-09-15T14:36:58.869Z,18.60
2017-09-15T14:39:26.790Z,18.90
2017-09-15T14:41:54.426Z,18.60
2017-09-15T14:44:22.064Z,18.20
2017-09-15T14:46:49.726Z,17.80
2017-09-15T14:49:18.428Z,17.40
2017-09-15T14:51:47.303Z,18.00
2017-09-15T14:54:14.968Z,18.30
2017-09-15T14:56:45.544Z,17.70
2017-09-15T14:59:13.958Z,17.80
2017-09-15T15:01:42.579Z,17.40
2017-09-15T15:04:10.281Z,17.40
2017-09-15T15:06:38.025Z,17.40
2017-09-15T15:09:06.082Z,17.90
2017-09-15T15:11:35.583Z,17.90
2017-09-15T15:14:03.216Z,17.60
2017-09-15T15:16:30.860Z,17.40
2017-09-15T15:18:58.563Z,17.20
2017-09-15T15:21:26.181Z,17.00
2017-09-15T15:23:53.814Z,16.70
2017-09-15T15:26:22.932Z,16.80
2017-09-15T15:28:50.554Z,16.80
2017-09-15T15:31:18.175Z,16.70
2017-09-15T15:33:45.865Z,16.50
2017-09-15T15:36:13.460Z,16.40
2017-09-15T15:38:41.057Z,16.70
2017-09-15T15:41:08.694Z,16.60
2017-09-15T15:43:36.328Z,16.40
2017-09-15T15:46:04.140Z,16.50
2017-09-15T15:48:32.805Z,16.30
2017-09-15T15:51:00.518Z,16.30
2017-09-15T15:53:32.656Z,16.40
2017-09-15T15:56:03.973Z,16.40
2017-09-15T15:58:31.696Z,16.40
2017-09-15T16:00:59.707Z,16.30
2017-09-15T16:03:28.380Z,16.30
2017-09-15T16:05:56.120Z,16.20
2017-09-15T16:08:23.750Z,16.20
2017-09-15T16:10:51.482Z,16.10
2017-09-15T16:13:19.948Z,15.90
2017-09-15T16:15:47.692Z,15.60
2017-09-15T16:18:15.385Z,15.40
2017-09-15T16:20:42.995Z,15.40
2017-09-15T16:23:10.653Z,15.50
2017-09-15T16:25:38.278Z,15.40
2017-09-15T16:28:05.959Z,15.30
2017-09-15T16:30:33.660Z,15.30
2017-09-15T16:33:01.296Z,15.20
2017-09-15T16:35:30.028Z,15.00
2017-09-15T16:38:03.402Z,15.00
2017-09-15T16:40:37.680Z,14.90
2017-09-15T16:43:10.951Z,14.90
2017-09-15T16:45:44.104Z,14.90
2017-09-15T16:48:18.125Z,14.70
2017-09-15T16:50:45.749Z,14.70
2017-09-15T16:53:13.381Z,14.70
2017-09-15T16:55:41.058Z,14.70
2017-09-15T16:58:08.861Z,14.60
2017-09-15T17:00:36.461Z,14.50
2017-09-15T17:03:04.137Z,14.40
2017-09-15T17:08:06.524Z,13.90
2017-09-15T17:10:34.138Z,13.90
2017-09-15T17:13:01.757Z,13.90
2017-09-15T17:15:30.442Z,14.00
2017-09-15T17:17:58.068Z,14.00
2017-09-15T17:20:25.942Z,13.80
2017-09-15T17:22:53.595Z,13.70
2017-09-15T17:25:22.540Z,13.50
2017-09-15T17:27:50.398Z,13.50
2017-09-15T17:30:18.214Z,13.30
2017-09-15T17:32:45.881Z,13.30
2017-09-15T17:35:14.297Z,13.10
2017-09-15T17:37:41.948Z,13.10
2017-09-15T17:40:09.566Z,12.80
2017-09-15T17:42:37.173Z,12.80
2017-09-15T17:45:04.899Z,13.00
2017-09-15T17:50:06.576Z,13.00
2017-09-15T17:52:34.196Z,12.90
2017-09-15T17:55:01.787Z,12.70
2017-09-15T17:57:30.036Z,12.90
2017-09-15T17:59:58.497Z,12.80
2017-09-15T18:02:26.151Z,12.80
2017-09-15T18:04:53.963Z,12.60
2017-09-15T18:07:22.442Z,12.20
2017-09-15T18:09:50.244Z,12.10
2017-09-15T18:12:18.673Z,12.00
2017-09-15T18:14:46.277Z,12.00
2017-09-15T18:17:13.920Z,12.30
2017-09-15T18:19:41.548Z,12.20
2017-09-15T18:22:09.206Z,12.10
2017-09-15T18:24:38.608Z,12.00
2017-09-15T18:27:06.377Z,11.80
2017-09-15T18:29:34.020Z,11.60
2017-09-15T18:32:01.727Z,11.60
2017-09-15T18:34:30.018Z,11.50
2017-09-15T18:36:57.704Z,11.60
2017-09-15T18:39:26.222Z,11.70
2017-09-15T18:41:54.917Z,11.70
2017-09-15T18:44:22.639Z,11.60
2017-09-15T18:46:52.687Z,11.40
2017-09-15T18:49:20.463Z,11.20
2017-09-15T18:51:48.123Z,11.20
2017-09-15T18:54:15.793Z,11.20
2017-09-15T18:56:43.642Z,11.20
2017-09-15T18:59:11.598Z,11.20
2017-09-15T19:01:42.234Z,11.20
2017-09-15T19:04:10.052Z,11.00
2017-09-15T19:06:37.685Z,10.70
2017-09-15T19:09:05.938Z,10.80
2017-09-15T19:11:33.723Z,10.70
2017-09-15T19:14:01.437Z,10.70
2017-09-15T19:16:30.705Z,10.80
2017-09-15T19:18:58.332Z,10.80
2017-09-15T19:21:25.983Z,10.80
2017-09-15T19:23:54.362Z,10.90
2017-09-15T19:26:22.557Z,10.80
2017-09-15T19:28:51.120Z,10.90
2017-09-15T19:31:18.807Z,10.80
2017-09-15T19:33:46.772Z,10.60
2017-09-15T19:36:14.447Z,10.40
2017-09-15T19:38:42.106Z,10.40
2017-09-15T19:41:09.811Z,10.30
2017-09-15T19:43:37.494Z,10.30
2017-09-15T19:46:05.263Z,10.40
2017-09-15T19:48:33.721Z,10.70
2017-09-15T19:51:02.204Z,10.70
2017-09-15T19:53:30.767Z,10.10
2017-09-15T19:55:59.089Z,10.10
2017-09-15T19:58:26.818Z,10.10
2017-09-15T20:00:54.541Z,10.30
2017-09-15T20:03:22.285Z,10.50
2017-09-15T20:05:49.971Z,10.30
2017-09-15T20:08:19.408Z,10.40
2017-09-15T20:10:47.326Z,10.60
2017-09-15T20:13:15.480Z,10.60
2017-09-15T20:15:44.311Z,10.50
2017-09-15T20:18:12.201Z,10.40
2017-09-15T20:20:40.838Z,10.70
2017-09-15T20:23:08.770Z,10.90
2017-09-15T20:25:36.803Z,10.80
2017-09-15T20:28:04.641Z,10.60
2017-09-15T20:30:33.243Z,10.70
2017-09-15T20:33:01.113Z,10.70
2017-09-15T20:35:31.586Z,10.60
2017-09-15T20:37:59.332Z,10.50
2017-09-15T20:40:27.364Z,10.60
2017-09-15T20:42:55.200Z,10.80
2017-09-15T20:45:22.937Z,10.60
2017-09-15T20:47:50.759Z,10.70
2017-09-15T20:50:18.507Z,10.60
2017-09-15T20:52:46.178Z,10.70
2017-09-15T20:55:13.915Z,10.50
2017-09-15T20:57:41.555Z,10.40
2017-09-15T21:00:09.247Z,10.40
2017-09-15T21:02:36.943Z,10.30
2017-09-15T21:05:05.569Z,10.30
2017-09-15T21:07:33.279Z,10.30
2017-09-15T21:10:02.066Z,10.20
2017-09-15T21:12:32.886Z,10.10
2017-09-15T21:15:01.066Z,10.20
2017-09-15T21:17:30.076Z,10.20
2017-09-15T21:19:58.542Z,10.00
2017-09-15T21:22:26.252Z,10.00
2017-09-15T21:24:53.920Z,10.10
2017-09-15T21:27:21.588Z,10.10
2017-09-15T21:29:49.473Z,10.00
2017-09-15T21:32:17.125Z,10.10
2017-09-15T21:34:45.856Z,10.20
2017-09-15T21:37:13.547Z,10.10
2017-09-15T21:39:41.992Z,10.10
2017-09-15T21:42:09.879Z,10.10
2017-09-15T21:44:41.724Z,10.20
2017-09-15T21:47:15.074Z,10.30
2017-09-15T21:49:42.880Z,10.20
2017-09-15T21:52:10.730Z,10.20
2017-09-15T21:54:38.519Z,10.20
2017-09-15T21:57:07.304Z,9.90
2017-09-15T21:59:38.321Z,9.90
2017-09-15T22:02:06.180Z,10.00
2017-09-15T22:04:39.565Z,10.00
2017-09-15T22:07:09.143Z,9.90
2017-09-15T22:09:36.959Z,10.00
2017-09-15T22:12:04.879Z,9.80
2017-09-15T22:14:32.885Z,9.50
2017-09-15T22:17:03.017Z,9.60
2017-09-15T22:19:32.202Z,9.90
2017-09-15T22:22:00.135Z,9.70
2017-09-15T22:24:28.054Z,9.70
2017-09-15T22:26:57.445Z,10.00
2017-09-15T22:29:25.622Z,9.80
2017-09-15T22:31:58.998Z,9.80
2017-09-15T22:34:26.676Z,10.00
2017-09-15T22:36:54.351Z,9.90
2017-09-15T22:39:22.077Z,9.70
2017-09-15T22:41:51.204Z,9.80
2017-09-15T22:44:18.915Z,9.80
2017-09-15T22:46:50.320Z,9.80
2017-09-15T22:49:18.696Z,9.80
2017-09-15T22:51:46.520Z,9.90
2017-09-15T22:54:26.213Z,10.10
2017-09-15T22:56:55.315Z,10.30
2017-09-15T22:59:23.062Z,10.30
2017-09-15T23:01:51.123Z,10.20
2017-09-15T23:04:18.791Z,10.10
2017-09-15T23:06:46.456Z,9.60
2017-09-15T23:09:14.187Z,9.40
2017-09-15T23:11:41.862Z,9.40
2017-09-15T23:14:09.521Z,9.70
2017-09-15T23:16:37.186Z,9.80
2017-09-15T23:19:04.845Z,10.00
2017-09-15T23:21:32.472Z,10.00
2017-09-15T23:24:00.128Z,10.00
2017-09-15T23:26:27.788Z,10.30
2017-09-15T23:28:55.428Z,9.90
2017-09-15T23:31:23.104Z,9.80
2017-09-15T23:33:50.761Z,9.70
2017-09-15T23:36:18.380Z,9.60
2017-09-15T23:38:46.800Z,9.80
2017-09-15T23:41:14.435Z,9.80
2017-09-15T23:43:42.106Z,10.10
2017-09-15T23:46:10.351Z,9.80
2017-09-15T23:48:38.026Z,9.80
2017-09-15T23:51:05.761Z,9.80
2017-09-15T23:53:33.443Z,9.80
2017-09-15T23:56:01.085Z,9.90
2017-09-15T23:58:28.750Z,9.70
